createdAt,value
2019-03-04T00:01:16.853Z,24.73
2019-03-04T00:03:47.354Z,27.83
2019-03-04T00:06:17.826Z,25.57
2019-03-04T00:08:48.334Z,27.87
2019-03-04T00:11:18.803Z,27.20
2019-03-04T00:13:49.282Z,24.53
2019-03-04T00:16:19.789Z,24.80
2019-03-04T00:18:50.249Z,26.03
2019-03-04T00:21:20.750Z,25.73
2019-03-04T00:23:51.202Z,26.27
2019-03-04T00:26:21.690Z,24.73
2019-03-04T00:28:52.176Z,24.10
2019-03-04T00:31:22.777Z,26.83
2019-03-04T00:33:53.400Z,25.93
2019-03-04T00:36:23.905Z,24.47
2019-03-04T00:38:54.410Z,26.70
2019-03-04T00:41:24.923Z,25.40
2019-03-04T00:43:55.377Z,25.53
2019-03-04T00:46:27.154Z,25.97
2019-03-04T00:48:57.613Z,28.90
2019-03-04T00:51:28.080Z,29.53
2019-03-04T00:53:58.578Z,29.07
2019-03-04T00:56:29.078Z,36.33
2019-03-04T00:58:59.576Z,41.10
2019-03-04T01:01:30.086Z,46.27
2019-03-04T01:04:00.565Z,44.47
2019-03-04T01:06:31.084Z,44.60
2019-03-04T01:09:01.541Z,45.13
2019-03-04T01:11:32.042Z,43.70
2019-03-04T01:14:02.510Z,43.93
2019-03-04T01:16:33.012Z,47.70
2019-03-04T01:19:03.526Z,40.30
2019-03-04T01:21:33.972Z,39.63
2019-03-04T01:24:04.534Z,42.80
2019-03-04T01:26:35.034Z,44.70
2019-03-04T01:29:05.624Z,44.30
2019-03-04T01:31:36.206Z,43.87
2019-03-04T01:34:06.692Z,40.17
2019-03-04T01:36:37.150Z,42.03
2019-03-04T01:39:07.992Z,40.70
2019-03-04T01:41:38.447Z,43.13
2019-03-04T01:44:08.920Z,40.33
2019-03-04T01:46:39.421Z,39.90
2019-03-04T01:49:09.926Z,42.00
2019-03-04T01:51:40.394Z,39.60
2019-03-04T01:54:10.903Z,40.40
2019-03-04T01:56:41.399Z,40.20
2019-03-04T01:59:11.852Z,41.40
2019-03-04T02:01:42.376Z,44.90
2019-03-04T02:04:12.848Z,42.23
2019-03-04T02:06:43.314Z,39.33
2019-03-04T02:09:14.228Z,41.80
2019-03-04T02:11:44.688Z,42.63
2019-03-04T02:14:15.136Z,40.10
2019-03-04T02:16:45.625Z,43.53
2019-03-04T02:19:16.077Z,40.53
2019-03-04T02:21:46.573Z,37.03
2019-03-04T02:24:27.227Z,40.47
2019-03-04T02:26:59.256Z,42.17
2019-03-04T02:29:29.748Z,37.10
2019-03-04T02:32:00.198Z,36.13
2019-03-04T02:34:30.686Z,34.60
2019-03-04T02:37:01.281Z,36.50
2019-03-04T02:39:31.753Z,37.33
2019-03-04T02:42:02.210Z,34.87
2019-03-04T02:44:32.721Z,32.93
2019-03-04T02:47:03.235Z,32.27
2019-03-04T02:49:33.674Z,33.77
2019-03-04T02:52:04.193Z,36.20
2019-03-04T02:54:34.649Z,32.93
2019-03-04T02:57:05.194Z,35.33
2019-03-04T02:59:35.685Z,37.30
2019-03-04T03:02:08.246Z,34.17
2019-03-04T03:04:38.777Z,37.63
2019-03-04T03:07:09.233Z,34.13
2019-03-04T03:09:39.686Z,38.70
2019-03-04T03:12:10.219Z,32.33
2019-03-04T03:14:40.738Z,36.87
2019-03-04T03:17:11.225Z,33.37
2019-03-04T03:19:41.735Z,36.93
2019-03-04T03:22:12.184Z,34.80
2019-03-04T03:24:42.670Z,36.77
2019-03-04T03:27:13.191Z,47.67
2019-03-04T03:29:43.617Z,37.03
2019-03-04T03:32:14.087Z,38.27
2019-03-04T03:34:44.575Z,40.13
2019-03-04T03:37:15.081Z,40.57
2019-03-04T03:39:45.590Z,36.70
2019-03-04T03:42:18.830Z,34.30
2019-03-04T03:44:48.240Z,35.27
2019-03-04T03:47:18.745Z,34.30
2019-03-04T03:49:49.196Z,34.33
2019-03-04T03:52:19.664Z,35.20
2019-03-04T03:54:50.159Z,33.93
2019-03-04T03:57:20.719Z,38.40
2019-03-04T03:59:51.211Z,34.57
2019-03-04T04:02:21.667Z,33.87
2019-03-04T04:04:52.177Z,41.53
2019-03-04T04:07:22.730Z,46.10
2019-03-04T04:09:53.768Z,40.30
2019-03-04T04:12:24.270Z,39.20
2019-03-04T04:14:54.724Z,31.43
2019-03-04T04:17:25.224Z,31.83
2019-03-04T04:19:55.677Z,35.60
2019-03-04T04:22:26.267Z,34.17
2019-03-04T04:24:56.817Z,37.93
2019-03-04T04:27:27.326Z,34.17
2019-03-04T04:29:57.793Z,33.90
2019-03-04T04:32:28.293Z,32.57
2019-03-04T04:34:58.791Z,38.50
2019-03-04T04:37:29.254Z,38.60
2019-03-04T04:39:59.857Z,32.03
2019-03-04T04:42:30.362Z,33.63
2019-03-04T04:45:00.870Z,31.87
2019-03-04T04:47:31.371Z,35.37
2019-03-04T04:50:01.825Z,33.87
2019-03-04T04:52:32.292Z,36.10
2019-03-04T04:55:02.818Z,31.73
2019-03-04T04:57:33.267Z,32.93
2019-03-04T05:00:03.933Z,28.40
2019-03-04T05:02:34.441Z,26.00
2019-03-04T05:05:05.118Z,30.73
2019-03-04T05:07:35.671Z,28.43
2019-03-04T05:10:08.681Z,33.27
2019-03-04T05:12:39.187Z,32.93
2019-03-04T05:15:10.864Z,29.53
2019-03-04T05:17:41.378Z,31.23
2019-03-04T05:20:14.289Z,28.13
2019-03-04T05:22:44.901Z,40.53
2019-03-04T05:25:15.495Z,110.77
2019-03-04T05:27:45.999Z,29.40
2019-03-04T05:30:18.540Z,49.70
2019-03-04T05:32:49.137Z,59.77
2019-03-04T05:35:19.789Z,41.20
2019-03-04T05:37:50.346Z,35.77
2019-03-04T05:40:20.864Z,28.10
2019-03-04T05:42:51.331Z,30.50
2019-03-04T05:45:21.932Z,29.20
2019-03-04T05:47:52.422Z,28.07
2019-03-04T05:50:22.918Z,24.67
2019-03-04T05:52:53.521Z,23.40
2019-03-04T05:55:23.979Z,24.13
2019-03-04T05:57:54.490Z,23.97
2019-03-04T06:00:26.260Z,26.00
2019-03-04T06:02:56.888Z,25.20
2019-03-04T06:05:27.370Z,24.93
2019-03-04T06:08:00.527Z,25.77
2019-03-04T06:10:31.023Z,26.93
2019-03-04T06:13:01.475Z,24.37
2019-03-04T06:15:31.941Z,25.43
2019-03-04T06:18:02.545Z,29.30
2019-03-04T06:20:33.045Z,26.07
2019-03-04T06:23:03.529Z,28.40
2019-03-04T06:25:33.989Z,25.60
2019-03-04T06:28:04.484Z,27.00
2019-03-04T06:30:34.974Z,27.20
2019-03-04T06:33:05.436Z,25.93
2019-03-04T06:35:35.929Z,27.50
2019-03-04T06:38:06.421Z,25.37
2019-03-04T06:40:36.882Z,25.13
2019-03-04T06:43:07.480Z,26.63
2019-03-04T06:45:38.078Z,30.43
2019-03-04T06:48:08.586Z,26.07
2019-03-04T06:50:49.392Z,25.10
2019-03-04T06:54:02.339Z,24.33
2019-03-04T06:56:55.731Z,22.47
2019-03-04T07:00:11.236Z,22.67
2019-03-04T07:02:41.717Z,20.57
2019-03-04T07:05:48.120Z,22.93
2019-03-04T07:09:12.208Z,22.53
2019-03-04T07:11:49.972Z,24.80
2019-03-04T07:14:20.537Z,22.70
2019-03-04T07:16:51.974Z,21.07
2019-03-04T07:19:36.595Z,22.77
2019-03-04T07:22:07.101Z,23.63
2019-03-04T07:24:37.553Z,23.80
2019-03-04T07:27:08.037Z,23.60
2019-03-04T07:29:38.509Z,24.57
2019-03-04T07:32:09.073Z,23.40
2019-03-04T07:34:39.542Z,22.83
2019-03-04T07:37:09.642Z,24.83
2019-03-04T07:39:40.083Z,23.30
2019-03-04T07:42:10.547Z,25.40
2019-03-04T07:44:41.053Z,25.70
2019-03-04T07:47:11.569Z,24.23
2019-03-04T07:49:42.584Z,26.47
2019-03-04T07:52:13.089Z,26.87
2019-03-04T07:54:43.600Z,25.50
2019-03-04T07:57:14.072Z,24.67
2019-03-04T07:59:44.597Z,25.03
2019-03-04T08:02:15.061Z,26.57
2019-03-04T08:04:45.527Z,27.03
2019-03-04T08:07:51.040Z,27.70
2019-03-04T08:11:16.022Z,24.50
2019-03-04T08:13:54.017Z,25.17
2019-03-04T08:16:24.479Z,25.67
2019-03-04T08:18:54.969Z,26.23
2019-03-04T08:21:28.512Z,27.23
2019-03-04T08:23:59.018Z,27.07
2019-03-04T08:26:29.757Z,26.97
2019-03-04T08:29:00.273Z,27.73
2019-03-04T08:31:30.843Z,27.20
2019-03-04T08:34:01.353Z,27.37
2019-03-04T08:36:31.820Z,26.90
2019-03-04T08:39:02.326Z,25.20
2019-03-04T08:41:32.799Z,24.50
2019-03-04T08:44:03.310Z,25.50
2019-03-04T08:46:33.788Z,25.60
2019-03-04T08:49:04.279Z,25.63
2019-03-04T08:51:34.745Z,26.73
2019-03-04T08:54:05.250Z,25.97
2019-03-04T08:56:35.742Z,25.57
2019-03-04T08:59:06.199Z,26.60
2019-03-04T09:01:36.701Z,26.27
2019-03-04T09:04:07.211Z,25.67
2019-03-04T09:06:37.775Z,24.13
2019-03-04T09:09:09.117Z,24.07
2019-03-04T09:11:39.685Z,25.90
2019-03-04T09:14:10.194Z,23.60
2019-03-04T09:16:40.760Z,25.33
2019-03-04T09:19:11.269Z,22.93
2019-03-04T09:21:41.745Z,22.80
2019-03-04T09:24:12.342Z,25.90
2019-03-04T09:26:42.802Z,22.97
2019-03-04T09:29:13.295Z,22.87
2019-03-04T09:31:43.754Z,21.80
2019-03-04T09:34:14.400Z,23.03
2019-03-04T09:36:44.862Z,21.43
2019-03-04T09:39:17.002Z,22.90
2019-03-04T09:41:47.505Z,22.63
2019-03-04T09:44:17.974Z,21.47
2019-03-04T09:46:48.483Z,21.13
2019-03-04T09:49:18.940Z,20.50
2019-03-04T09:51:49.403Z,21.23
2019-03-04T09:54:19.858Z,21.63
2019-03-04T09:56:50.360Z,21.63
2019-03-04T09:59:20.822Z,22.13
2019-03-04T10:01:55.187Z,20.83
2019-03-04T10:05:17.098Z,21.83
2019-03-04T10:08:13.536Z,21.67
2019-03-04T10:11:20.742Z,21.13
2019-03-04T10:14:22.734Z,20.33
2019-03-04T10:17:12.811Z,20.37
2019-03-04T10:19:55.790Z,20.13
2019-03-04T10:22:48.725Z,19.97
2019-03-04T10:26:11.595Z,20.27
2019-03-04T10:29:19.987Z,19.73
2019-03-04T10:32:13.218Z,19.77
2019-03-04T10:35:19.778Z,20.90
2019-03-04T10:38:22.843Z,21.03
2019-03-04T10:41:23.110Z,21.13
2019-03-04T10:44:28.900Z,20.33
2019-03-04T10:47:02.611Z,19.23
2019-03-04T10:49:35.353Z,19.10
2019-03-04T10:52:06.083Z,16.10
2019-03-04T10:54:36.546Z,16.27
2019-03-04T10:57:07.062Z,17.00
2019-03-04T10:59:37.523Z,17.03
2019-03-04T11:02:08.185Z,16.07
2019-03-04T11:04:38.681Z,14.67
2019-03-04T11:07:09.274Z,16.90
2019-03-04T11:09:39.737Z,16.87
2019-03-04T11:12:10.342Z,15.03
2019-03-04T11:14:40.812Z,18.70
2019-03-04T11:17:11.326Z,17.27
2019-03-04T11:19:41.842Z,16.77
2019-03-04T11:22:12.405Z,16.20
2019-03-04T11:24:42.913Z,16.90
2019-03-04T11:27:13.489Z,16.40
2019-03-04T11:29:43.994Z,16.00
2019-03-04T11:32:14.510Z,14.43
2019-03-04T11:34:44.974Z,14.30
2019-03-04T11:37:15.478Z,14.17
2019-03-04T11:40:00.481Z,13.67
2019-03-04T11:42:31.077Z,13.87
2019-03-04T11:45:01.683Z,13.37
2019-03-04T11:47:32.148Z,13.50
2019-03-04T11:50:02.621Z,12.97
2019-03-04T11:52:33.138Z,13.33
2019-03-04T11:55:03.642Z,13.07
2019-03-04T11:57:34.280Z,11.67
2019-03-04T12:00:09.210Z,10.93
2019-03-04T12:02:39.815Z,11.03
2019-03-04T12:05:10.998Z,11.93
2019-03-04T12:07:41.590Z,18.73
2019-03-04T12:10:15.498Z,15.67
2019-03-04T12:12:46.227Z,10.77
2019-03-04T12:15:17.457Z,10.93
2019-03-04T12:17:48.024Z,11.20
2019-03-04T12:20:18.730Z,10.90
2019-03-04T12:22:49.288Z,10.30
2019-03-04T12:25:20.065Z,12.13
2019-03-04T12:27:50.524Z,10.63
2019-03-04T12:30:21.247Z,11.30
2019-03-04T12:32:52.749Z,12.53
2019-03-04T12:35:23.451Z,11.73
2019-03-04T12:37:53.899Z,37.60
2019-03-04T12:40:24.644Z,42.93
2019-03-04T12:42:55.109Z,29.33
2019-03-04T12:45:33.909Z,11.00
2019-03-04T12:47:57.881Z,9.93
2019-03-04T12:50:28.536Z,9.70
2019-03-04T12:52:59.049Z,10.30
2019-03-04T12:55:29.603Z,9.87
2019-03-04T12:58:00.159Z,9.00
2019-03-04T13:00:31.938Z,8.77
2019-03-04T13:03:02.402Z,8.83
2019-03-04T13:05:33.008Z,10.00
2019-03-04T13:08:03.512Z,9.07
2019-03-04T13:10:34.165Z,9.50
2019-03-04T13:13:04.792Z,9.43
2019-03-04T13:15:35.446Z,10.00
2019-03-04T13:18:05.983Z,10.27
2019-03-04T13:20:36.540Z,8.33
2019-03-04T13:23:08.132Z,8.50
2019-03-04T13:25:38.667Z,7.87
2019-03-04T13:28:09.164Z,8.10
2019-03-04T13:30:40.025Z,8.83
2019-03-04T13:33:10.743Z,7.93
2019-03-04T13:35:41.457Z,8.43
2019-03-04T13:38:12.133Z,8.07
2019-03-04T13:40:44.045Z,8.90
2019-03-04T13:43:14.539Z,10.50
2019-03-04T13:45:45.183Z,8.13
2019-03-04T13:48:15.774Z,8.30
2019-03-04T13:50:46.586Z,8.03
2019-03-04T13:53:17.046Z,7.47
2019-03-04T13:55:47.534Z,8.13
2019-03-04T13:58:18.078Z,7.60
2019-03-04T14:00:48.567Z,8.17
2019-03-04T14:03:19.018Z,7.77
2019-03-04T14:05:49.470Z,7.93
2019-03-04T14:08:20.267Z,8.00
2019-03-04T14:10:50.864Z,7.90
2019-03-04T14:13:21.321Z,8.47
2019-03-04T14:15:51.846Z,7.43
2019-03-04T14:18:22.307Z,7.97
2019-03-04T14:20:52.798Z,7.73
2019-03-04T14:23:23.287Z,8.67
2019-03-04T14:25:53.781Z,8.00
2019-03-04T14:28:24.232Z,7.63
2019-03-04T14:30:54.720Z,7.40
2019-03-04T14:33:25.171Z,7.67
2019-03-04T14:35:55.673Z,7.53
2019-03-04T14:38:26.174Z,7.37
2019-03-04T14:40:56.619Z,7.87
2019-03-04T14:43:27.123Z,7.63
2019-03-04T14:45:57.630Z,7.43
2019-03-04T14:48:28.085Z,7.53
2019-03-04T14:50:58.531Z,7.37
2019-03-04T14:53:29.041Z,7.07
2019-03-04T14:56:01.238Z,6.53
2019-03-04T14:58:31.863Z,8.10
2019-03-04T15:01:02.533Z,6.87
2019-03-04T15:03:33.000Z,6.93
2019-03-04T15:06:06.927Z,6.13
2019-03-04T15:08:35.692Z,5.57
2019-03-04T15:11:06.191Z,6.93
2019-03-04T15:13:36.689Z,6.13
2019-03-04T15:16:08.195Z,5.87
2019-03-04T15:18:38.692Z,6.30
2019-03-04T15:21:09.767Z,5.93
2019-03-04T15:23:40.251Z,5.83
2019-03-04T15:26:10.806Z,6.53
2019-03-04T15:28:41.301Z,5.33
2019-03-04T15:31:11.751Z,6.13
2019-03-04T15:33:42.340Z,6.27
2019-03-04T15:36:12.784Z,6.03
2019-03-04T15:38:43.246Z,8.20
2019-03-04T15:41:13.730Z,6.60
2019-03-04T15:43:44.192Z,5.20
2019-03-04T15:46:14.730Z,7.47
2019-03-04T15:48:45.299Z,6.53
2019-03-04T15:51:15.895Z,5.93
2019-03-04T15:53:46.396Z,5.97
2019-03-04T15:56:16.894Z,5.40
2019-03-04T15:58:47.345Z,6.23
2019-03-04T16:01:18.021Z,6.57
2019-03-04T16:03:48.506Z,6.07
2019-03-04T16:06:19.210Z,7.07
2019-03-04T16:08:49.725Z,12.77
2019-03-04T16:11:20.279Z,37.47
2019-03-04T16:13:55.160Z,44.70
2019-03-04T16:16:22.962Z,58.33
2019-03-04T16:18:53.473Z,29.10
2019-03-04T16:21:24.045Z,13.53
2019-03-04T16:23:54.526Z,9.47
2019-03-04T16:26:25.027Z,12.87
2019-03-04T16:28:55.523Z,15.53
2019-03-04T16:31:27.724Z,12.13
2019-03-04T16:33:58.237Z,12.67
2019-03-04T16:36:28.805Z,16.80
2019-03-04T16:38:59.362Z,13.20
2019-03-04T16:41:29.997Z,12.17
2019-03-04T16:44:00.471Z,10.47
2019-03-04T16:46:30.939Z,7.27
2019-03-04T16:49:01.537Z,9.10
2019-03-04T16:51:32.101Z,8.63
2019-03-04T16:54:02.603Z,9.03
2019-03-04T16:56:33.060Z,8.50
2019-03-04T16:59:03.660Z,9.23
2019-03-04T17:01:34.160Z,11.43
2019-03-04T17:04:04.767Z,12.07
2019-03-04T17:06:35.325Z,12.23
2019-03-04T17:09:18.752Z,10.97
2019-03-04T17:11:49.319Z,10.53
2019-03-04T17:14:19.933Z,10.80
2019-03-04T17:16:50.379Z,10.43
2019-03-04T17:19:20.829Z,11.43
2019-03-04T17:21:51.402Z,11.13
2019-03-04T17:24:21.907Z,10.80
2019-03-04T17:26:52.381Z,12.60
2019-03-04T17:29:22.879Z,10.43
2019-03-04T17:31:53.685Z,11.83
2019-03-04T17:34:24.180Z,10.77
2019-03-04T17:36:54.686Z,10.63
2019-03-04T17:39:25.143Z,9.97
2019-03-04T17:41:55.828Z,11.30
2019-03-04T17:44:26.313Z,21.50
2019-03-04T17:46:56.816Z,21.27
2019-03-04T17:49:27.272Z,15.63
2019-03-04T17:51:57.771Z,12.27
2019-03-04T17:54:28.242Z,12.97
2019-03-04T17:56:58.721Z,12.27
2019-03-04T17:59:29.223Z,11.00
2019-03-04T18:01:59.691Z,13.00
2019-03-04T18:04:30.169Z,11.93
2019-03-04T18:07:00.677Z,11.30
2019-03-04T18:09:31.170Z,12.03
2019-03-04T18:12:01.719Z,11.40
2019-03-04T18:14:32.182Z,11.60
2019-03-04T18:17:02.690Z,12.80
2019-03-04T18:19:33.195Z,13.00
2019-03-04T18:22:03.681Z,12.10
2019-03-04T18:24:34.147Z,12.13
2019-03-04T18:27:11.961Z,10.83
2019-03-04T18:30:11.813Z,12.47
2019-03-04T18:33:31.754Z,11.50
2019-03-04T18:36:35.607Z,12.23
2019-03-04T18:39:43.371Z,13.33
2019-03-04T18:42:50.455Z,15.07
2019-03-04T18:45:50.318Z,14.13
2019-03-04T18:48:58.719Z,23.17
2019-03-04T18:51:30.716Z,25.50
2019-03-04T18:54:12.414Z,30.83
2019-03-04T18:56:43.089Z,39.07
2019-03-04T18:59:13.590Z,41.63
2019-03-04T19:01:44.255Z,39.20
2019-03-04T19:04:14.862Z,36.57
2019-03-04T19:06:45.337Z,32.23
2019-03-04T19:09:16.065Z,38.20
2019-03-04T19:11:46.566Z,35.50
2019-03-04T19:14:17.028Z,33.80
2019-03-04T19:16:47.533Z,31.33
2019-03-04T19:19:18.000Z,26.97
2019-03-04T19:21:48.706Z,32.27
2019-03-04T19:24:19.162Z,33.43
2019-03-04T19:26:49.657Z,21.13
2019-03-04T19:29:20.122Z,21.00
2019-03-04T19:31:50.642Z,20.50
2019-03-04T19:34:21.291Z,21.77
2019-03-04T19:36:51.753Z,23.40
2019-03-04T19:39:22.373Z,25.43
2019-03-04T19:41:52.845Z,36.67
2019-03-04T19:44:23.345Z,36.70
2019-03-04T19:46:53.914Z,24.43
2019-03-04T19:49:24.425Z,19.87
2019-03-04T19:51:54.887Z,18.67
2019-03-04T19:54:25.483Z,22.33
2019-03-04T19:56:55.924Z,25.47
2019-03-04T19:59:26.425Z,28.67
2019-03-04T20:01:57.018Z,24.80
2019-03-04T20:04:27.688Z,27.07
2019-03-04T20:06:58.301Z,29.47
2019-03-04T20:09:28.806Z,28.67
2019-03-04T20:11:59.426Z,28.63
2019-03-04T20:14:29.992Z,31.43
2019-03-04T20:17:00.489Z,27.30
2019-03-04T20:19:31.054Z,32.30
2019-03-04T20:22:01.549Z,36.73
2019-03-04T20:24:32.052Z,34.03
2019-03-04T20:27:02.552Z,25.97
2019-03-04T20:29:33.036Z,28.87
2019-03-04T20:32:03.504Z,29.47
2019-03-04T20:34:34.001Z,26.93
2019-03-04T20:37:04.709Z,25.47
2019-03-04T20:39:35.176Z,26.37
2019-03-04T20:42:05.677Z,30.60
2019-03-04T20:44:36.355Z,32.73
2019-03-04T20:47:06.863Z,27.77
2019-03-04T20:49:37.324Z,30.53
2019-03-04T20:52:07.813Z,26.77
2019-03-04T20:54:38.315Z,31.20
2019-03-04T20:57:08.768Z,26.37
2019-03-04T20:59:39.257Z,31.70
2019-03-04T21:02:09.810Z,29.80
2019-03-04T21:04:40.471Z,31.13
2019-03-04T21:07:11.458Z,28.80
2019-03-04T21:09:42.152Z,32.23
2019-03-04T21:12:12.756Z,31.10
2019-03-04T21:14:43.358Z,28.37
2019-03-04T21:17:13.979Z,31.33
2019-03-04T21:19:44.435Z,30.10
2019-03-04T21:22:15.038Z,27.07
2019-03-04T21:24:45.624Z,37.77
2019-03-04T21:27:16.364Z,31.37
2019-03-04T21:30:26.159Z,32.07
2019-03-04T21:33:08.416Z,39.07
2019-03-04T21:36:05.128Z,34.63
2019-03-04T21:38:35.961Z,34.00
2019-03-04T21:41:50.967Z,37.63
2019-03-04T21:44:44.929Z,37.80
2019-03-04T21:47:25.976Z,36.70
2019-03-04T21:49:57.482Z,38.57
2019-03-04T21:53:08.687Z,36.63
2019-03-04T21:55:50.450Z,61.70
2019-03-04T21:58:21.034Z,49.57
2019-03-04T22:00:59.089Z,44.13
2019-03-04T22:03:32.694Z,48.23
2019-03-04T22:06:03.603Z,42.63
2019-03-04T22:08:34.207Z,42.03
2019-03-04T22:11:05.029Z,43.93
2019-03-04T22:13:35.649Z,45.53
2019-03-04T22:16:06.226Z,42.10
2019-03-04T22:18:36.869Z,47.83
2019-03-04T22:21:16.294Z,44.57
2019-03-04T22:23:39.857Z,49.43
2019-03-04T22:26:10.333Z,45.60
2019-03-04T22:28:40.864Z,47.17
2019-03-04T22:31:11.324Z,47.57
2019-03-04T22:33:41.835Z,48.77
2019-03-04T22:36:12.465Z,50.23
2019-03-04T22:38:43.129Z,52.40
2019-03-04T22:41:13.939Z,53.10
2019-03-04T22:43:44.535Z,52.83
2019-03-04T22:46:14.973Z,53.03
2019-03-04T22:48:45.450Z,50.03
2019-03-04T22:51:15.971Z,49.83
2019-03-04T22:53:46.433Z,47.17
2019-03-04T22:56:16.949Z,44.67
2019-03-04T22:58:47.426Z,44.23
2019-03-04T23:01:44.757Z,42.80
2019-03-04T23:04:35.512Z,39.33
2019-03-04T23:07:21.074Z,43.73
2019-03-04T23:10:22.203Z,40.20
2019-03-04T23:13:08.969Z,36.23
2019-03-04T23:15:39.452Z,36.63
2019-03-04T23:18:09.987Z,40.47
2019-03-04T23:20:40.459Z,44.13
2019-03-04T23:23:10.927Z,41.33
2019-03-04T23:25:41.400Z,44.03
2019-03-04T23:28:11.842Z,46.30
2019-03-04T23:30:42.312Z,44.23
2019-03-04T23:33:12.968Z,43.00
2019-03-04T23:35:43.401Z,40.53
2019-03-04T23:38:13.830Z,40.60
2019-03-04T23:40:44.404Z,46.63
2019-03-04T23:43:14.849Z,38.23
2019-03-04T23:45:45.319Z,43.97
2019-03-04T23:48:15.733Z,44.83
2019-03-04T23:50:46.195Z,38.70
2019-03-04T23:53:16.808Z,41.83
2019-03-04T23:55:47.263Z,41.10
2019-03-04T23:58:17.710Z,39.23
